My Meet Scores
Olivia Smith, GymNasti - MyMeetScores.com
Top100 | Top Teams | Upcoming Meets | Completed Meets | Latest | Add Scores | Help| Support | Bookmark and Share

Olivia Smith, GymNasti
Personal Bests
LevelVault BarsBeamFloorAA
39.6259.125 9.0259.52537.000
49.4008.650 9.2509.55036.650
59.6758.400 8.9009.22535.850
Meet Scores
Date Meet Team Session Level Division Vault Bars Beam Floor AA
2019-03-22 Illinois Gymnastics State Championships GymNasti 3 5 SR C 9.500 9T 8.325 26 8.800 12T 9.225 10T 35.850 16
2019-02-15 Women's Midwest Open GymNasti 05 5 Senior A 9.675 1 8.400 7T 8.625 6 8.800 4 35.500 3T
2019-02-08 IGI Chicago Style 2019 GymNasti 8 5 212 Lakeshore L5 D 9.225 1 7.975 17 8.575 15 9.050 5 34.825 11
2019-01-25 King Arthur Invitational GymNasti 13 5 SR B 9.275 5 7.650 10 8.900 3 8.950 4 34.775 6
2019-01-11 St Jude Benefit Meet GymNasti 9A 5 Sr B 9.150 6T 8.150 11 8.675 5 9.050 6 35.025 7
2018-12-07 St. Nick Invite 2018 GymNasti 1 5 SrB 9.550 1 7.650 16 8.150 16 8.450 12 33.800 11T
2018-03-08 Level 4 & 5 State GymNasti All 4 Sr B 9.350 5 8.650 19 9.250 17 9.400 2 36.650 7
2018-02-23 Kinetic Classic GymNasti 6 4 Older 9.400 6T 8.450 72 8.650 50T 9.150 44T 35.650 42
2018-02-17 Women's Midwest Open GymNasti 12 4 Sr B 9.275 3 8.425 16 8.425 16 9.000 9 35.125 14
2018-01-26 King Arthur Invitational GymNasti 2 4 Sr B 8.775 2 7.925 16 8.675 4T 9.225 1 34.600 6
2018-01-12 St Jude Benefit Meet GymNasti 2A 4 SrB 8.475 9 8.500 12 8.775 12 9.350 2 35.100 7
2017-12-08 St. Nick Invite GymNasti 7A 4 SrA 9.200 5T 8.150 14 8.825 13 9.550 1 35.725 8
2017-03-10 2017 Illinois Level 4 State Championships GymNasti 4 4 Jr A 8.850 14 7.900 25 9.000 20T 9.425 3 35.175 21T
2017-02-17 Midwest Open GymNasti 2B 4 Sr A 8.475 14 7.550 17 9.125 8 9.150 2T 34.300 15
2017-02-10 IGI Chicago Style Gymnastics Meet GymNasti 632L 4 JrC 9.000 8 8.000 24 8.500 17 9.375 2 34.875 17
2017-02-03 2017 Gateway Challenge GymNasti 6B 4 10 8.350 14T 7.875 15 8.000 17 9.275 5T 33.500 17
2017-01-20 2017 Bravo Classic GymNasti 08B 4 10yrs 8.800 7T 8.350 18 9.250 9 9.350 5 35.750 12
2017-01-13 St Jude Benefit Meet GymNasti 3A 4 Sr A 8.675 5T 8.000 16 9.150 11 9.400 3 35.225 8
2016-12-09 St. Nick Invite GymNasti 7 4 SrA 8.500 15T 6.900 18 9.100 11 9.450 2 33.950 12
2016-03-04 2016 Illinois Level 3 State Championships GymNasti 3 Junior-C 9.525 4 9.125 6 8.500 17 9.425 1 36.575 7
2016-02-19 Midwest Open Womens 2016 GymNasti 1A 3 9+ 9.625 3 8.850 14 9.000 6 9.525 4 37.000 7
2016-02-12 IGI Chicago Style Gymnastics Meet GymNasti 213 3 SrA 9.550 1 8.600 12 8.500 11 9.300 4 35.950 9
2016-01-22 King Arthur Invitational GymNasti S13 3 Sr.A 9.325 3 8.775 13 9.025 11 9.250 5 36.375 8
2016-01-08 St Jude Benefit Meet GymNasti 7A 3 Sr A 9.525 6T 8.550 10 8.925 9 9.500 3T 36.500 6
2015-12-04 2015 Ultimate Wish Classic GymNasti 11B 3 All 9.075 26 8.825 41 8.775 34 9.425 7 36.100 28
2015-03-12 2015 Illinois Level 3 State Championship GymNasti All 3 Youth-B 9.325 9 7.975 31 8.850 14 9.300 8 35.450 19
2015-02-20 Midwest Open 2015 GymNasti 3A 3 8 9.050 21 7.950 24 8.325 16 9.150 6 34.475 19
Get your scores on
a t-shirt, pin, or hoodie

www.lazysuits.com